Time;durP1;ratioP1;P1;durP2;ratioP2;P2;SDS_P1;SDS_P2;PMS_P1;PMS_P2;Temp;Humidity;BMP_temperature;BMP_pressure;BME280_temperature;BME280_humidity;BME280_pressure;Samples;Min_cycle;Max_cycle;Signal;HPM_P1;HPM_P2
2022/12/23 05:06:59;;;;;;;93.93;36.40;;;;;;;6.65;93.02;100167.31;5609015;31;81287;-54
2022/12/23 05:10:02;;;;;;;82.18;35.10;;;;;;;6.65;93.02;100167.31;5628960;31;34564;-54
2022/12/23 05:13:04;;;;;;;71.97;35.42;;;;;;;6.13;96.60;100168.88;5623077;31;34253;-54
2022/12/23 05:16:06;;;;;;;78.65;36.00;;;;;;;6.12;94.18;100173.41;5623027;31;33622;-54
2022/12/23 05:19:09;;;;;;;73.35;35.80;;;;;;;6.17;94.75;100164.66;5637928;31;34286;-54
2022/12/23 05:22:11;;;;;;;71.90;35.13;;;;;;;6.23;96.21;100176.16;5642870;31;33488;-54
2022/12/23 05:25:14;;;;;;;85.43;35.83;;;;;;;6.16;96.54;100167.56;5643252;31;34225;-55
2022/12/23 05:28:16;;;;;;;68.10;34.17;;;;;;;6.21;95.41;100172.94;5641625;31;33623;-54
2022/12/23 05:31:18;;;;;;;79.87;35.65;;;;;;;6.26;94.63;100178.28;5642847;31;34383;-54
2022/12/23 05:34:21;;;;;;;77.85;34.20;;;;;;;6.21;96.31;100176.37;5643013;31;34307;-54
2022/12/23 05:37:23;;;;;;;70.87;33.05;;;;;;;6.11;94.47;100169.13;5639927;31;33705;-54
2022/12/23 05:40:25;;;;;;;65.53;32.88;;;;;;;6.06;93.80;100168.28;5634566;31;34440;-54
2022/12/23 05:43:34;;;;;;;54.78;32.53;;;;;;;6.19;95.17;100159.88;5643184;31;33557;-54
2022/12/23 05:46:36;;;;;;;59.67;32.47;;;;;;;6.27;96.64;100169.25;5642805;31;34339;-54
2022/12/23 05:49:39;;;;;;;63.40;32.20;;;;;;;6.12;92.95;100170.75;5624586;31;33718;-54
2022/12/23 05:52:41;;;;;;;57.65;32.45;;;;;;;5.97;94.28;100185.78;5623011;31;33684;-54
2022/12/23 05:55:43;;;;;;;56.25;31.02;;;;;;;5.97;93.63;100196.44;5622855;31;33716;-54
2022/12/23 05:58:45;;;;;;;46.33;27.87;;;;;;;5.99;92.86;100199.63;5617057;31;33659;-54
2022/12/23 06:01:48;;;;;;;45.08;28.02;;;;;;;6.01;92.82;100206.31;5622526;31;34305;-54
2022/12/23 06:04:51;;;;;;;46.28;28.98;;;;;;;6.46;100.00;100196.25;5621023;31;33560;-54
2022/12/23 06:07:53;;;;;;;51.42;29.98;;;;;;;6.36;100.00;100191.66;5609411;31;34232;-54
2022/12/23 06:10:55;;;;;;;53.20;28.42;;;;;;;6.16;92.96;100192.34;5602633;31;33592;-54
2022/12/23 06:13:58;;;;;;;49.65;28.35;;;;;;;6.28;97.02;100184.16;5604395;31;33620;-54
2022/12/23 06:17:00;;;;;;;51.65;27.73;;;;;;;6.42;98.39;100187.16;5615054;31;33696;-54
2022/12/23 06:20:03;;;;;;;59.95;27.55;;;;;;;6.29;91.79;100183.09;5609475;31;34311;-54
2022/12/23 06:23:06;;;;;;;46.15;27.60;;;;;;;6.08;92.53;100190.94;5608892;31;33350;-54
2022/12/23 06:26:08;;;;;;;46.53;27.83;;;;;;;6.11;92.98;100184.31;5608501;31;33614;-54
2022/12/23 06:29:10;;;;;;;47.42;27.48;;;;;;;6.16;91.66;100184.34;5609323;31;34334;-54
2022/12/23 06:32:13;;;;;;;46.75;27.52;;;;;;;6.08;91.06;100184.81;5609031;31;33603;-54
2022/12/23 06:35:15;;;;;;;47.50;27.83;;;;;;;6.00;92.52;100183.44;5606859;31;34375;-54
2022/12/23 06:38:17;;;;;;;53.28;28.20;;;;;;;6.08;94.29;100176.81;5608891;31;34398;-54
2022/12/23 06:41:20;;;;;;;51.50;27.95;;;;;;;6.16;100.00;100170.22;5605761;31;33550;-54
2022/12/23 06:44:22;;;;;;;51.60;28.60;;;;;;;6.12;100.00;100172.59;5608723;31;34328;-54
2022/12/23 06:47:24;;;;;;;50.35;27.48;;;;;;;6.16;92.94;100178.19;5595022;31;33780;-54
2022/12/23 06:50:26;;;;;;;44.53;27.52;;;;;;;6.11;92.01;100189.63;5574882;31;33774;-55
2022/12/23 06:53:29;;;;;;;46.95;28.12;;;;;;;6.20;93.37;100187.31;5589117;31;34294;-54
2022/12/23 06:56:34;;;;;;;51.88;28.80;;;;;;;6.04;92.39;100205.00;5594850;31;33694;-54
2022/12/23 06:59:36;;;;;;;56.37;29.55;;;;;;;6.10;96.35;100206.66;5616889;31;33630;-54
2022/12/23 07:02:38;;;;;;;46.28;28.42;;;;;;;6.23;100.00;100208.09;5608877;31;33727;-53
2022/12/23 07:05:41;;;;;;;49.60;28.67;;;;;;;6.09;93.84;100219.16;5608322;31;34312;-54
2022/12/23 07:08:43;;;;;;;51.08;26.85;;;;;;;6.05;91.89;100238.53;5608050;31;33667;-54
2022/12/23 07:11:45;;;;;;;47.15;27.25;;;;;;;6.00;92.44;100238.50;5608373;31;33590;-54
2022/12/23 07:14:48;;;;;;;38.78;23.38;;;;;;;6.04;90.63;100250.25;5608698;31;33584;-54
2022/12/23 07:17:50;;;;;;;39.75;24.95;;;;;;;5.91;91.43;100258.59;5608656;31;33694;-55
2022/12/23 07:20:53;;;;;;;47.72;24.12;;;;;;;6.00;91.24;100251.81;5607196;31;34225;-54
2022/12/23 07:23:55;;;;;;;44.80;25.37;;;;;;;5.98;93.58;100241.41;5608734;31;33679;-54
2022/12/23 07:26:57;;;;;;;44.47;24.58;;;;;;;5.94;94.61;100235.00;5606444;31;33642;-53
2022/12/23 07:30:00;;;;;;;46.75;24.60;;;;;;;5.98;90.43;100232.63;5606174;31;34162;-55
2022/12/23 07:33:02;;;;;;;44.45;25.45;;;;;;;5.96;94.11;100216.09;5599878;31;33865;-54
2022/12/23 07:36:05;;;;;;;43.35;25.00;;;;;;;6.01;93.54;100203.66;5595464;31;33592;-54
2022/12/23 07:39:07;;;;;;;41.97;25.33;;;;;;;6.04;90.26;100208.47;5607468;31;34389;-54
2022/12/23 07:42:10;;;;;;;49.08;26.75;;;;;;;6.08;93.56;100209.56;5608470;31;34225;-54
2022/12/23 07:45:32;;;;;;;45.33;25.75;;;;;;;6.19;100.00;100207.78;5608229;31;33719;-53
2022/12/23 07:48:35;;;;;;;44.72;25.70;;;;;;;6.03;94.92;100209.53;5593645;31;33607;-54
2022/12/23 07:51:37;;;;;;;40.95;25.10;;;;;;;5.94;91.80;100203.06;5592138;31;34287;-54
2022/12/23 07:54:39;;;;;;;42.20;25.33;;;;;;;5.97;93.22;100207.09;5601052;31;31830;-54
2022/12/23 07:57:41;;;;;;;45.12;25.75;;;;;;;5.98;93.10;100203.34;5588624;31;33716;-54
2022/12/23 08:00:44;;;;;;;42.40;26.02;;;;;;;5.96;91.57;100205.47;5600316;31;33635;-54
2022/12/23 08:03:47;;;;;;;48.15;27.37;;;;;;;6.07;100.00;100199.97;5603193;31;33646;-54
2022/12/23 08:06:49;;;;;;;40.60;26.00;;;;;;;6.07;96.59;100199.97;5587423;31;34269;-54
2022/12/23 08:09:52;;;;;;;39.88;25.15;;;;;;;5.96;92.99;100200.97;5588263;31;33567;-54
2022/12/23 08:12:54;;;;;;;44.03;26.05;;;;;;;6.28;100.00;100195.59;5587472;31;34419;-54
2022/12/23 08:15:58;;;;;;;42.05;25.40;;;;;;;6.26;96.53;100200.38;5570544;31;34242;-54
2022/12/23 08:19:00;;;;;;;42.38;25.80;;;;;;;6.46;100.00;100194.41;5568836;32;34383;-54
2022/12/23 08:22:02;;;;;;;47.62;27.95;;;;;;;6.14;91.07;100206.94;5568958;32;33840;-54
2022/12/23 08:25:05;;;;;;;46.13;26.55;;;;;;;6.16;94.00;100210.97;5579393;31;33574;-54
2022/12/23 08:28:08;;;;;;;46.80;26.98;;;;;;;6.28;100.00;100194.78;5586117;31;34260;-55
2022/12/23 08:31:16;;;;;;;50.33;28.20;;;;;;;6.38;100.00;100186.88;5570761;31;33651;-54
2022/12/23 08:34:18;;;;;;;56.47;29.77;;;;;;;6.31;95.03;100192.41;5568861;32;33598;-54
2022/12/23 08:37:21;;;;;;;57.08;29.77;;;;;;;6.15;91.25;100189.91;5575960;31;34362;-54
2022/12/23 08:40:23;;;;;;;55.47;30.95;;;;;;;6.38;100.00;100189.53;5585190;31;33282;-55
2022/12/23 08:43:25;;;;;;;50.70;29.30;;;;;;;6.43;96.74;100200.22;5581078;31;33596;-54
2022/12/23 08:46:37;;;;;;;52.22;29.37;;;;;;;6.26;90.63;100205.72;5587845;31;34159;-55
2022/12/23 08:49:39;;;;;;;53.47;30.70;;;;;;;6.33;96.32;100198.31;5582333;31;33604;-54
2022/12/23 08:52:42;;;;;;;56.35;32.17;;;;;;;6.20;93.23;100187.31;5584349;31;33387;-54
2022/12/23 08:55:46;;;;;;;53.35;31.33;;;;;;;6.11;94.22;100182.44;5585054;31;33639;-54
2022/12/23 08:58:53;;;;;;;56.05;33.00;;;;;;;6.27;97.53;100166.59;5579597;31;33595;-56
2022/12/23 09:01:58;;;;;;;55.28;32.58;;;;;;;6.51;100.00;100151.00;5570808;31;33644;-54
2022/12/23 09:05:01;;;;;;;54.60;30.45;;;;;;;6.31;94.79;100159.69;5568529;31;33598;-54
2022/12/23 09:08:03;;;;;;;61.22;32.10;;;;;;;6.30;100.00;100153.56;5599921;31;33646;-54
2022/12/23 09:11:10;;;;;;;58.63;32.13;;;;;;;6.28;91.36;100154.88;5598660;31;33618;-54
2022/12/23 09:14:12;;;;;;;61.37;32.53;;;;;;;6.22;96.94;100164.66;5606347;31;34312;-54
2022/12/23 09:17:16;;;;;;;58.45;32.20;;;;;;;6.24;95.51;100175.06;5607371;31;33551;-53
2022/12/23 09:20:18;;;;;;;54.47;30.75;;;;;;;6.17;95.70;100164.66;5607168;31;33703;-54
2022/12/23 09:23:21;;;;;;;63.78;31.55;;;;;;;6.46;100.00;100167.78;5605449;31;33565;-54
2022/12/23 09:26:26;;;;;;;54.72;32.03;;;;;;;6.23;100.00;100176.16;5597986;31;34343;-54
2022/12/23 09:29:28;;;;;;;52.10;30.75;;;;;;;6.52;100.00;100176.56;5589676;31;32421;-54
2022/12/23 09:32:30;;;;;;;49.80;29.83;;;;;;;6.51;100.00;100177.62;5595741;31;33540;-54
2022/12/23 09:35:33;;;;;;;54.38;28.70;;;;;;;6.47;100.00;100176.56;5587159;31;33581;-54
2022/12/23 09:38:35;;;;;;;47.47;29.52;;;;;;;6.44;100.00;100185.06;5591124;31;33752;-54
2022/12/23 09:42:08;;;;;;;51.72;29.95;;;;;;;6.35;100.00;100166.88;5607039;31;34250;-54
2022/12/23 09:45:32;;;;;;;48.75;30.48;;;;;;;6.26;99.50;100157.00;5566454;31;33328;-54
2022/12/23 09:48:49;;;;;;;44.38;27.35;;;;;;;6.22;97.07;100156.69;5595113;31;34286;-54
2022/12/23 09:51:59;;;;;;;43.20;27.85;;;;;;;6.18;91.12;100147.62;5607164;31;33539;-54
2022/12/23 09:55:01;;;;;;;45.65;28.08;;;;;;;6.03;96.18;100142.22;5594353;31;33376;-54
2022/12/23 09:58:18;;;;;;;41.72;27.15;;;;;;;6.00;91.60;100158.69;5589566;31;34404;-54
2022/12/23 10:01:39;;;;;;;42.58;25.20;;;;;;;5.99;91.77;100165.03;5590222;31;33454;-54
2022/12/23 10:05:07;;;;;;;46.88;28.62;;;;;;;6.42;100.00;100155.22;5589639;31;34333;-54
2022/12/23 10:08:21;;;;;;;44.03;26.42;;;;;;;6.38;97.78;100148.81;5589292;31;33244;-54
2022/12/23 10:11:30;;;;;;;45.03;27.73;;;;;;;6.12;90.31;100138.81;5594276;31;33201;-54
2022/12/23 10:14:35;;;;;;;48.78;28.15;;;;;;;6.09;91.42;100120.69;5594649;31;34400;-55
2022/12/23 10:17:40;;;;;;;45.97;29.45;;;;;;;6.12;99.89;100108.72;5591759;31;32214;-54
2022/12/23 10:20:52;;;;;;;47.83;26.62;;;;;;;5.97;90.74;100120.06;5589323;31;34391;-54
2022/12/23 10:23:54;;;;;;;46.33;26.48;;;;;;;6.19;100.00;100122.63;5590215;31;33753;-54
2022/12/23 10:27:02;;;;;;;46.60;26.52;;;;;;;6.16;93.47;100122.31;5600093;31;34341;-54
2022/12/23 10:30:14;;;;;;;43.40;27.87;;;;;;;6.17;99.67;100110.63;5608933;31;33587;-55
2022/12/23 10:33:56;;;;;;;44.22;27.65;;;;;;;6.40;100.00;100101.44;5609151;31;34383;-54
2022/12/23 10:37:20;;;;;;;45.80;28.00;;;;;;;6.22;93.62;100105.31;5595317;31;34437;-54
2022/12/23 10:41:00;;;;;;;52.25;30.48;;;;;;;6.19;91.28;100087.19;5589378;31;33729;-54
2022/12/23 10:44:37;;;;;;;47.03;29.63;;;;;;;6.09;95.07;100093.25;5589288;31;33328;-54
2022/12/23 10:47:50;;;;;;;56.60;31.27;;;;;;;6.09;97.83;100091.41;5591450;31;33697;-54
2022/12/23 10:51:00;;;;;;;51.70;30.20;;;;;;;6.12;99.43;100082.09;5606722;31;33611;-54
2022/12/23 10:54:11;;;;;;;57.00;33.60;;;;;;;6.19;100.00;100081.88;5608768;31;33770;-54
2022/12/23 10:57:16;;;;;;;50.05;30.90;;;;;;;6.17;96.91;100074.16;5608892;31;33791;-54
2022/12/23 11:00:21;;;;;;;53.35;32.47;;;;;;;6.26;97.00;100072.62;5589524;31;34049;-55
2022/12/23 11:03:35;;;;;;;53.22;32.55;;;;;;;6.22;94.22;100076.81;5588955;31;33644;-54
2022/12/23 11:06:41;;;;;;;58.92;32.40;;;;;;;6.24;92.18;100082.72;5588720;31;34362;-54
2022/12/23 11:10:17;;;;;;;50.35;31.40;;;;;;;6.45;91.10;100082.81;5603560;31;33802;-54
2022/12/23 11:13:40;;;;;;;52.70;31.35;;;;;;;6.32;92.08;100084.91;5608653;31;33726;-55
2022/12/23 11:16:46;;;;;;;54.20;31.45;;;;;;;6.27;98.58;100082.19;5608405;31;33731;-54
2022/12/23 11:20:11;;;;;;;52.67;33.43;;;;;;;6.29;94.48;100082.75;5593465;31;33636;-54
2022/12/23 11:23:34;;;;;;;52.83;32.67;;;;;;;6.24;92.74;100073.94;5589112;31;34284;-54
2022/12/23 11:26:38;;;;;;;53.90;31.52;;;;;;;6.33;98.44;100064.41;5588966;31;34343;-54
2022/12/23 11:29:53;;;;;;;44.78;29.80;;;;;;;6.73;99.71;100061.06;5588819;31;33709;-54
2022/12/23 11:32:55;;;;;;;53.13;30.40;;;;;;;6.59;96.35;100060.78;5588887;31;33820;-54
2022/12/23 11:35:59;;;;;;;58.05;35.05;;;;;;;6.85;100.00;100052.03;5589165;31;33729;-55
2022/12/23 11:39:06;;;;;;;57.20;34.50;;;;;;;6.81;100.00;100059.75;5589067;31;34404;-54
2022/12/23 11:42:16;;;;;;;57.83;34.28;;;;;;;6.68;100.00;100057.59;5574710;31;34327;-54
2022/12/23 11:45:24;;;;;;;59.90;33.42;;;;;;;6.44;95.52;100073.22;5588920;31;33280;-54
2022/12/23 11:48:29;;;;;;;56.72;32.70;;;;;;;6.49;98.34;100078.56;5588604;31;33652;-55
2022/12/23 11:51:31;;;;;;;55.60;33.05;;;;;;;6.72;100.00;100077.31;5589007;31;33727;-54
2022/12/23 11:54:34;;;;;;;63.65;34.90;;;;;;;6.66;100.00;100076.50;5588814;31;33554;-54
2022/12/23 11:57:47;;;;;;;62.62;35.67;;;;;;;6.73;100.00;100074.41;5574853;31;33659;-55
2022/12/23 12:00:57;;;;;;;55.95;33.70;;;;;;;6.66;92.84;100075.72;5588863;31;33423;-54
2022/12/23 12:04:04;;;;;;;58.45;32.10;;;;;;;6.75;100.00;100074.91;5589228;31;34430;-54
2022/12/23 12:07:11;;;;;;;54.72;32.58;;;;;;;6.94;100.00;100077.09;5588357;31;33804;-54
2022/12/23 12:10:20;;;;;;;59.10;32.88;;;;;;;7.03;100.00;100080.87;5601471;31;34429;-54
2022/12/23 12:13:29;;;;;;;56.30;31.87;;;;;;;7.18;100.00;100085.41;5607877;31;33530;-54
2022/12/23 12:16:34;;;;;;;60.58;33.67;;;;;;;6.88;96.35;100092.28;5607723;31;33287;-54
2022/12/23 12:19:47;;;;;;;58.38;34.55;;;;;;;6.75;91.41;100085.56;5608353;31;33657;-54
2022/12/23 12:22:54;;;;;;;62.15;34.10;;;;;;;6.65;93.59;100084.75;5608219;31;33662;-54
2022/12/23 12:26:05;;;;;;;59.88;35.05;;;;;;;6.73;91.09;100090.38;5608618;31;33706;-54
2022/12/23 12:29:30;;;;;;;94.07;62.00;;;;;;;6.62;92.95;100091.37;5607825;31;34391;-54
2022/12/23 12:32:45;;;;;;;79.85;51.30;;;;;;;6.62;93.95;100090.59;5608156;31;34245;-54
2022/12/23 12:36:01;;;;;;;70.35;44.22;;;;;;;6.65;96.89;100092.72;5608341;31;33437;-54
2022/12/23 12:39:18;;;;;;;74.80;47.50;;;;;;;6.57;98.47;100097.50;5607806;31;33695;-54
2022/12/23 12:42:39;;;;;;;67.75;40.28;;;;;;;6.66;100.00;100089.03;5607557;31;34059;-55
2022/12/23 12:45:49;;;;;;;74.93;46.17;;;;;;;6.77;93.75;100077.34;5607677;31;33685;-54
2022/12/23 12:49:05;;;;;;;72.97;36.63;;;;;;;6.62;92.69;100071.94;5608054;31;33730;-54
2022/12/23 12:52:37;;;;;;;65.97;36.00;;;;;;;6.76;92.19;100079.19;5607719;31;33642;-54
2022/12/23 12:55:46;;;;;;;64.05;37.50;;;;;;;6.75;92.68;100074.91;5606755;31;34309;-54
2022/12/23 12:58:49;;;;;;;66.15;37.33;;;;;;;6.71;92.54;100078.38;5607687;31;33671;-54
2022/12/23 13:01:58;;;;;;;74.78;39.67;;;;;;;6.75;92.93;100079.44;5607619;31;33815;-54
2022/12/23 13:05:23;;;;;;;67.20;34.80;;;;;;;6.86;97.39;100086.44;5607514;31;34069;-55
2022/12/23 13:08:47;;;;;;;67.57;36.40;;;;;;;6.79;93.64;100091.22;5587986;31;33665;-54
2022/12/23 13:12:27;;;;;;;64.53;36.88;;;;;;;6.74;93.42;100089.31;5589355;31;34432;-54
2022/12/23 13:15:33;;;;;;;65.00;34.60;;;;;;;6.77;94.69;100080.78;5561137;31;33974;-54
2022/12/23 13:18:41;;;;;;;62.35;35.45;;;;;;;6.83;93.29;100079.75;5587679;31;33757;-54
2022/12/23 13:21:50;;;;;;;64.85;35.58;;;;;;;6.83;92.51;100082.41;5587629;31;33753;-55
2022/12/23 13:25:13;;;;;;;71.80;36.70;;;;;;;6.91;91.63;100083.75;5587735;31;33776;-54
2022/12/23 13:28:34;;;;;;;72.35;37.70;;;;;;;6.81;96.80;100084.53;5589983;31;33906;-55
2022/12/23 13:31:50;;;;;;;70.90;37.88;;;;;;;6.78;94.54;100082.38;5590202;31;33590;-54
2022/12/23 13:35:18;;;;;;;69.60;37.70;;;;;;;6.88;97.47;100084.28;5590421;31;33650;-54
2022/12/23 13:39:04;;;;;;;74.50;41.10;;;;;;;6.84;95.21;100093.88;5590069;31;33650;-55
2022/12/23 13:42:12;;;;;;;73.03;38.70;;;;;;;6.87;100.00;100087.22;5589925;31;34287;-54
2022/12/23 13:45:17;;;;;;;74.90;39.70;;;;;;;6.87;96.55;100088.00;5590005;31;34345;-54
2022/12/23 13:48:37;;;;;;;73.55;39.25;;;;;;;6.95;97.44;100094.69;5589862;31;33749;-54
2022/12/23 13:51:57;;;;;;;76.85;38.65;;;;;;;6.95;99.53;100084.03;5589839;31;33892;-54
2022/12/23 13:55:19;;;;;;;72.35;39.55;;;;;;;6.91;96.92;100091.75;5589943;31;33779;-54
2022/12/23 13:58:24;;;;;;;70.22;43.70;;;;;;;6.86;99.66;100086.44;5589771;31;33335;-54
2022/12/23 14:01:39;;;;;;;68.82;36.78;;;;;;;7.02;100.00;100085.41;5589881;31;33376;-54
2022/12/23 14:04:54;;;;;;;76.32;37.75;;;;;;;7.39;100.00;100076.38;5589766;31;33604;-55
2022/12/23 14:08:02;;;;;;;66.35;35.53;;;;;;;7.30;99.78;100085.97;5589382;31;33906;-54
2022/12/23 14:11:15;;;;;;;75.30;38.55;;;;;;;7.10;100.00;100091.28;5589433;31;33620;-54
2022/12/23 14:14:55;;;;;;;67.12;37.63;;;;;;;6.95;98.54;100095.50;5589819;31;33710;-54
2022/12/23 14:18:28;;;;;;;65.18;36.05;;;;;;;7.03;99.58;100089.66;5589458;31;33647;-54
2022/12/23 14:21:54;;;;;;;89.65;51.40;;;;;;;7.04;100.00;100093.91;5589851;31;34344;-54
2022/12/23 14:25:18;;;;;;;67.72;38.67;;;;;;;7.13;97.66;100098.75;5589834;31;33678;-54
2022/12/23 14:29:13;;;;;;;76.30;39.67;;;;;;;7.18;100.00;100099.53;5589833;31;34263;-54
2022/12/23 14:32:25;;;;;;;70.32;36.08;;;;;;;7.22;99.38;100094.50;5569679;31;34330;-54
2022/12/23 14:35:31;;;;;;;81.40;37.67;;;;;;;7.19;100.00;100095.81;5589898;31;34225;-54
2022/12/23 14:39:12;;;;;;;71.37;37.78;;;;;;;7.29;100.00;100095.03;5589200;31;33723;-54
2022/12/23 14:42:40;;;;;;;78.90;39.75;;;;;;;7.18;95.56;100104.06;5575728;31;33770;-54
2022/12/23 14:45:43;;;;;;;76.10;37.22;;;;;;;7.03;94.33;100108.31;5589608;31;34318;-54
2022/12/23 14:48:45;;;;;;;74.65;38.63;;;;;;;7.31;100.00;100100.88;5589252;31;34335;-54
2022/12/23 14:51:49;;;;;;;81.82;37.88;;;;;;;7.33;98.63;100106.78;5589460;31;33761;-54
2022/12/23 14:54:51;;;;;;;77.95;40.28;;;;;;;7.15;95.27;100100.09;5589371;31;33267;-54
2022/12/23 14:58:17;;;;;;;73.07;39.55;;;;;;;7.16;93.42;100101.69;5589078;31;33704;-54
2022/12/23 15:01:29;;;;;;;64.97;35.70;;;;;;;7.13;93.74;100096.88;5589397;31;33700;-55
2022/12/23 15:04:43;;;;;;;81.32;37.38;;;;;;;7.05;100.00;100100.88;5589357;31;33657;-54
2022/12/23 15:07:45;;;;;;;74.78;36.20;;;;;;;7.03;100.00;100105.66;5589278;31;33862;-54
2022/12/23 15:10:48;;;;;;;73.90;37.40;;;;;;;7.09;97.87;100116.34;5589177;31;33885;-55
2022/12/23 15:13:52;;;;;;;73.12;36.35;;;;;;;7.24;94.80;100129.69;5589378;31;34330;-54
2022/12/23 15:16:55;;;;;;;89.37;40.72;;;;;;;7.14;95.40;100129.66;5589078;31;33465;-55
2022/12/23 15:20:22;;;;;;;89.80;37.30;;;;;;;7.15;94.52;100128.59;5589082;31;34348;-54
2022/12/23 15:23:25;;;;;;;114.55;41.70;;;;;;;6.97;100.00;100130.69;5588923;31;33703;-54
2022/12/23 15:26:30;;;;;;;74.43;38.60;;;;;;;7.15;100.00;100134.75;5589141;31;33673;-54
